Time;durP1;ratioP1;P1;durP2;ratioP2;P2;SDS_P1;SDS_P2;PMS_P1;PMS_P2;Temp;Humidity;BMP_temperature;BMP_pressure;BME280_temperature;BME280_humidity;BME280_pressure;Samples;Min_cycle;Max_cycle;Signal;HPM_P1;HPM_P2
2020/12/26 00:00:20;;;;;;;5.03;2.22;;;6.00;88.50;;;;;;5024507;28;20021;-74
2020/12/26 00:02:46;;;;;;;4.82;2.10;;;6.00;88.50;;;;;;5014961;28;20512;-74
2020/12/26 00:05:12;;;;;;;4.90;2.40;;;6.00;88.20;;;;;;5015998;28;20501;-74
2020/12/26 00:07:37;;;;;;;6.97;2.53;;;5.90;88.10;;;;;;5018991;28;20029;-74
2020/12/26 00:10:04;;;;;;;10.25;2.97;;;5.90;88.30;;;;;;5032869;28;20336;-74
2020/12/26 00:12:29;;;;;;;8.07;2.60;;;5.90;88.40;;;;;;5033530;28;20026;-75
2020/12/26 00:14:55;;;;;;;5.00;2.25;;;5.90;88.40;;;;;;5044965;28;20025;-74
2020/12/26 00:17:21;;;;;;;5.97;2.22;;;5.90;88.30;;;;;;5033129;28;20083;-74
2020/12/26 00:19:46;;;;;;;6.25;2.40;;;5.90;88.30;;;;;;5032048;28;20021;-74
2020/12/26 00:22:11;;;;;;;6.20;2.17;;;5.90;88.30;;;;;;5033206;28;20045;-74
2020/12/26 00:24:37;;;;;;;5.38;2.28;;;5.90;88.20;;;;;;5022789;28;20021;-74
2020/12/26 00:27:03;;;;;;;5.82;1.95;;;5.90;88.20;;;;;;5033718;28;20022;-74
2020/12/26 00:29:28;;;;;;;5.15;2.40;;;6.00;88.10;;;;;;5030176;28;20021;-74
2020/12/26 00:31:53;;;;;;;4.60;2.17;;;5.90;88.10;;;;;;5033265;28;20026;-74
2020/12/26 00:34:21;;;;;;;5.97;2.10;;;5.90;88.40;;;;;;5030007;28;20098;-74
2020/12/26 00:36:46;;;;;;;5.88;2.10;;;5.80;88.30;;;;;;5014240;28;20052;-74
2020/12/26 00:39:12;;;;;;;6.85;2.47;;;5.80;88.30;;;;;;5017364;28;20018;-77
2020/12/26 00:41:37;;;;;;;3.60;2.35;;;5.80;88.40;;;;;;5037606;28;20521;-74
2020/12/26 00:44:03;;;;;;;3.15;1.80;;;5.80;88.20;;;;;;5027760;28;20146;-74
2020/12/26 00:46:28;;;;;;;4.28;2.42;;;5.80;88.10;;;;;;5034289;28;20132;-73
2020/12/26 00:48:54;;;;;;;5.70;2.65;;;5.80;88.60;;;;;;5026354;28;20041;-73
2020/12/26 00:51:19;;;;;;;5.00;2.40;;;5.80;88.10;;;;;;5016051;28;20487;-73
2020/12/26 00:53:45;;;;;;;3.95;2.63;;;5.70;88.10;;;;;;5013692;28;20128;-73
2020/12/26 00:56:10;;;;;;;5.95;2.17;;;5.70;88.30;;;;;;5030899;28;20470;-73
2020/12/26 00:58:35;;;;;;;7.47;2.03;;;5.70;88.40;;;;;;5025161;28;20058;-73
2020/12/26 01:01:01;;;;;;;4.10;2.40;;;5.60;88.10;;;;;;5029099;28;20040;-73
2020/12/26 01:03:29;;;;;;;5.82;2.10;;;5.70;88.30;;;;;;5032804;28;20026;-73
2020/12/26 01:05:55;;;;;;;5.32;2.10;;;5.70;89.00;;;;;;5027219;28;20033;-73
2020/12/26 01:08:20;;;;;;;4.75;2.45;;;5.70;88.60;;;;;;5019217;28;20034;-73
2020/12/26 01:10:46;;;;;;;4.10;2.20;;;5.60;88.10;;;;;;5016801;28;20033;-73
2020/12/26 01:13:11;;;;;;;6.32;2.13;;;5.70;88.20;;;;;;5012774;28;20022;-73
2020/12/26 01:15:37;;;;;;;4.40;2.25;;;5.60;88.40;;;;;;5015951;28;20057;-73
2020/12/26 01:18:03;;;;;;;6.97;2.10;;;5.50;88.80;;;;;;5012315;28;20079;-73
2020/12/26 01:20:29;;;;;;;6.45;2.22;;;5.50;88.70;;;;;;5016638;28;20304;-73
2020/12/26 01:22:54;;;;;;;5.60;2.50;;;5.50;88.80;;;;;;5017051;28;20021;-73
2020/12/26 01:25:20;;;;;;;4.57;2.00;;;5.60;88.90;;;;;;5014765;28;20134;-73
2020/12/26 01:27:45;;;;;;;4.70;2.30;;;5.50;89.00;;;;;;5012480;28;20026;-73
2020/12/26 01:30:10;;;;;;;4.07;2.55;;;5.60;89.10;;;;;;5021892;28;20053;-73
2020/12/26 01:32:36;;;;;;;6.88;2.55;;;5.50;89.00;;;;;;5023276;28;20034;-73
2020/12/26 01:35:02;;;;;;;5.30;2.50;;;5.50;89.40;;;;;;5021744;28;20034;-73
2020/12/26 01:37:28;;;;;;;6.47;2.45;;;5.50;88.90;;;;;;5018354;28;20044;-73
2020/12/26 01:39:53;;;;;;;6.45;2.47;;;5.50;89.40;;;;;;5031434;28;20537;-73
2020/12/26 01:42:19;;;;;;;5.85;2.63;;;5.50;89.00;;;;;;5026887;28;20040;-73
2020/12/26 01:44:44;;;;;;;5.07;2.30;;;5.50;88.90;;;;;;5031095;28;20425;-73
2020/12/26 01:47:12;;;;;;;4.88;2.53;;;5.50;89.00;;;;;;5024807;28;20033;-73
2020/12/26 01:49:38;;;;;;;5.75;2.50;;;5.50;89.00;;;;;;5014074;28;21344;-73
2020/12/26 01:52:04;;;;;;;4.75;2.35;;;5.50;88.90;;;;;;5018443;28;20026;-73
2020/12/26 01:54:30;;;;;;;4.55;2.30;;;5.50;88.90;;;;;;5030510;28;20119;-75
2020/12/26 01:56:56;;;;;;;5.43;2.38;;;5.50;88.80;;;;;;5030837;28;20042;-74
2020/12/26 01:59:21;;;;;;;5.65;2.30;;;5.50;88.90;;;;;;5030391;28;20609;-74
2020/12/26 02:01:52;;;;;;;6.22;1.98;;;5.40;88.80;;;;;;5012157;28;20343;-74
2020/12/26 02:04:18;;;;;;;3.97;2.40;;;5.50;88.70;;;;;;5013682;28;20505;-74
2020/12/26 02:06:46;;;;;;;3.38;1.90;;;5.50;88.80;;;;;;5026578;28;20036;-74
2020/12/26 02:09:12;;;;;;;9.95;2.83;;;5.50;89.10;;;;;;5011724;28;20032;-73
2020/12/26 02:11:38;;;;;;;6.80;2.50;;;5.40;88.90;;;;;;5023164;28;20030;-74
2020/12/26 02:14:04;;;;;;;7.13;2.30;;;5.40;89.20;;;;;;5019606;28;20029;-74
2020/12/26 02:16:29;;;;;;;6.68;3.15;;;5.40;89.30;;;;;;5030536;28;20527;-74
2020/12/26 02:18:55;;;;;;;4.20;2.28;;;5.40;89.20;;;;;;5026463;28;20038;-74
2020/12/26 02:21:26;;;;;;;4.90;2.10;;;5.40;89.20;;;;;;5021441;28;20237;-75
2020/12/26 02:23:51;;;;;;;7.85;2.10;;;5.40;88.90;;;;;;5026633;28;20100;-74
2020/12/26 02:26:28;;;;;;;6.55;2.17;;;5.40;88.90;;;;;;5018331;28;20018;-74
2020/12/26 02:28:53;;;;;;;4.00;1.80;;;5.40;89.00;;;;;;5029712;28;20439;-74
2020/12/26 02:31:18;;;;;;;4.63;2.28;;;5.40;89.00;;;;;;5031517;28;20108;-74
2020/12/26 02:33:44;;;;;;;6.20;2.20;;;5.40;88.90;;;;;;5029005;28;20393;-74
2020/12/26 02:36:09;;;;;;;6.05;2.00;;;5.40;88.80;;;;;;4994039;28;20105;-74
2020/12/26 02:38:35;;;;;;;6.13;2.00;;;5.40;88.20;;;;;;5006670;28;20405;-74
2020/12/26 02:41:00;;;;;;;3.35;1.65;;;5.40;88.40;;;;;;5011669;28;20032;-74
2020/12/26 02:43:26;;;;;;;4.63;2.60;;;5.40;88.20;;;;;;5013237;28;20449;-74
2020/12/26 02:45:55;;;;;;;5.72;1.98;;;5.40;88.20;;;;;;5029597;28;20033;-74
2020/12/26 02:48:22;;;;;;;4.90;1.80;;;5.40;87.90;;;;;;5029981;28;20489;-74
2020/12/26 02:50:48;;;;;;;4.38;1.92;;;5.40;87.70;;;;;;5027482;28;20119;-74
2020/12/26 02:53:14;;;;;;;5.32;1.80;;;5.40;87.60;;;;;;5010554;28;20084;-73
2020/12/26 02:55:39;;;;;;;6.65;1.92;;;5.40;87.60;;;;;;5006362;28;20046;-74
2020/12/26 02:58:05;;;;;;;5.28;2.17;;;5.40;87.60;;;;;;5030318;28;20103;-74
2020/12/26 03:00:30;;;;;;;3.92;2.13;;;5.30;87.80;;;;;;5026703;28;20018;-75
2020/12/26 03:02:56;;;;;;;5.53;2.03;;;5.30;88.30;;;;;;5014208;28;20482;-73
2020/12/26 03:05:21;;;;;;;4.40;1.77;;;5.30;87.80;;;;;;5019991;28;20037;-74
2020/12/26 03:07:47;;;;;;;4.57;2.10;;;5.30;87.80;;;;;;5015096;28;20516;-74
2020/12/26 03:10:13;;;;;;;4.13;1.55;;;5.30;87.60;;;;;;5018761;28;20033;-74
2020/12/26 03:12:39;;;;;;;4.65;1.90;;;5.30;87.70;;;;;;5032864;28;20025;-74
2020/12/26 03:15:05;;;;;;;3.85;1.88;;;5.20;87.60;;;;;;5019129;28;20026;-74
2020/12/26 03:17:30;;;;;;;2.90;1.70;;;5.20;87.60;;;;;;5014832;28;20067;-74
2020/12/26 03:19:58;;;;;;;4.28;1.90;;;5.20;87.60;;;;;;5016707;28;20483;-74
2020/12/26 03:22:27;;;;;;;5.68;1.90;;;5.20;87.60;;;;;;5015152;28;20124;-74
2020/12/26 03:24:53;;;;;;;3.65;1.85;;;5.20;87.70;;;;;;5021864;28;20497;-74
2020/12/26 03:27:19;;;;;;;5.57;1.95;;;5.30;87.40;;;;;;5029635;28;20048;-74
2020/12/26 03:29:44;;;;;;;5.55;1.90;;;5.30;87.50;;;;;;5018037;28;20483;-74
2020/12/26 03:32:10;;;;;;;2.97;1.52;;;5.20;87.50;;;;;;5013476;28;20026;-74
2020/12/26 03:34:35;;;;;;;5.55;1.88;;;5.20;87.40;;;;;;5017022;28;20104;-74
2020/12/26 03:37:01;;;;;;;3.13;1.65;;;5.30;87.40;;;;;;5014655;28;20034;-74
2020/12/26 03:39:26;;;;;;;4.50;1.83;;;5.20;87.50;;;;;;5017359;28;20034;-75
2020/12/26 03:41:52;;;;;;;2.40;1.50;;;5.30;87.50;;;;;;5014719;28;20026;-76
2020/12/26 03:44:17;;;;;;;4.72;1.88;;;5.20;87.40;;;;;;5015149;28;20033;-75
2020/12/26 03:46:43;;;;;;;2.63;1.40;;;5.20;87.40;;;;;;5034730;28;20426;-75
2020/12/26 03:49:08;;;;;;;3.67;2.05;;;5.30;87.30;;;;;;5007754;28;20116;-75
2020/12/26 03:51:34;;;;;;;4.45;1.50;;;5.30;87.30;;;;;;5014147;28;20045;-75
2020/12/26 03:53:59;;;;;;;4.03;1.85;;;5.30;87.50;;;;;;5024786;28;20520;-75
2020/12/26 03:56:25;;;;;;;6.43;1.80;;;5.20;87.30;;;;;;5033846;28;20374;-75
2020/12/26 03:58:50;;;;;;;4.97;1.98;;;5.30;87.10;;;;;;5009856;28;20452;-75
2020/12/26 04:01:16;;;;;;;4.88;1.55;;;5.20;87.00;;;;;;5014152;28;20033;-75
2020/12/26 04:03:41;;;;;;;3.42;1.30;;;5.30;87.00;;;;;;5029509;28;20025;-76
2020/12/26 04:06:07;;;;;;;2.75;1.52;;;5.20;87.00;;;;;;5014688;28;20572;-75
2020/12/26 04:08:32;;;;;;;6.80;1.75;;;5.30;87.00;;;;;;5016756;28;20138;-75
2020/12/26 04:10:58;;;;;;;5.13;1.67;;;5.30;87.10;;;;;;5033670;28;20473;-76
2020/12/26 04:13:23;;;;;;;5.75;1.63;;;5.20;86.80;;;;;;5032190;28;20034;-75
2020/12/26 04:15:48;;;;;;;2.33;1.33;;;5.20;86.80;;;;;;5033827;28;20458;-75
2020/12/26 04:18:14;;;;;;;6.45;1.80;;;5.20;86.70;;;;;;5022525;28;20041;-75
2020/12/26 04:20:40;;;;;;;2.88;1.45;;;5.20;86.70;;;;;;5014015;28;20026;-75
2020/12/26 04:23:05;;;;;;;7.82;1.80;;;5.20;86.70;;;;;;5019691;28;20136;-75
2020/12/26 04:25:31;;;;;;;5.13;1.83;;;5.20;86.80;;;;;;5037098;28;20481;-75
2020/12/26 04:27:57;;;;;;;5.40;1.52;;;5.20;86.80;;;;;;5030339;28;20025;-75
2020/12/26 04:30:23;;;;;;;4.50;1.65;;;5.20;86.90;;;;;;5016610;28;20088;-75
2020/12/26 04:32:48;;;;;;;4.55;1.60;;;5.20;86.80;;;;;;5017942;28;20030;-75
2020/12/26 04:35:14;;;;;;;3.13;1.58;;;5.10;86.80;;;;;;5029074;28;20484;-75
2020/12/26 04:37:39;;;;;;;6.07;1.80;;;5.20;87.00;;;;;;5013676;28;20044;-75
2020/12/26 04:40:05;;;;;;;4.03;1.67;;;5.20;86.90;;;;;;5029191;28;20018;-75
2020/12/26 04:42:33;;;;;;;2.50;1.33;;;5.20;86.90;;;;;;5032665;28;20029;-75
2020/12/26 04:44:58;;;;;;;4.30;1.60;;;5.20;86.70;;;;;;5019621;28;20022;-74
2020/12/26 04:47:35;;;;;;;3.25;1.33;;;5.20;86.70;;;;;;5013503;28;20030;-74
2020/12/26 04:50:01;;;;;;;3.90;1.55;;;5.20;86.60;;;;;;5028614;28;20037;-74
2020/12/26 04:52:30;;;;;;;4.65;1.83;;;5.20;86.70;;;;;;5030944;28;20048;-76
2020/12/26 04:54:55;;;;;;;4.03;1.52;;;5.20;86.50;;;;;;5015149;28;20053;-77
2020/12/26 04:57:21;;;;;;;4.45;1.60;;;5.20;86.70;;;;;;5026823;28;20053;-74
2020/12/26 04:59:47;;;;;;;3.65;1.65;;;5.30;86.60;;;;;;5031950;28;20033;-74
2020/12/26 05:02:14;;;;;;;4.05;1.50;;;5.30;86.40;;;;;;5005598;28;20055;-74
2020/12/26 05:04:42;;;;;;;3.30;1.35;;;5.30;86.20;;;;;;5025519;28;20057;-73
2020/12/26 05:07:07;;;;;;;3.10;1.48;;;5.30;86.20;;;;;;5024407;28;20066;-74
2020/12/26 05:09:33;;;;;;;3.58;1.55;;;5.30;85.90;;;;;;5015097;28;20484;-74
2020/12/26 05:12:00;;;;;;;3.15;1.50;;;5.30;85.90;;;;;;4995338;28;20062;-74
2020/12/26 05:14:28;;;;;;;3.45;1.60;;;5.30;85.50;;;;;;5019991;28;20046;-73
2020/12/26 05:16:54;;;;;;;4.00;1.92;;;5.30;85.20;;;;;;5012851;28;20026;-73
2020/12/26 05:19:20;;;;;;;4.50;1.45;;;5.30;85.20;;;;;;5017161;28;20552;-73
2020/12/26 05:21:50;;;;;;;3.53;1.42;;;5.30;85.40;;;;;;5031901;28;20072;-75
2020/12/26 05:24:18;;;;;;;4.65;1.60;;;5.30;85.40;;;;;;5030351;28;20030;-74
2020/12/26 05:26:47;;;;;;;6.30;1.85;;;5.30;85.60;;;;;;5012741;28;20537;-74
2020/12/26 05:29:14;;;;;;;3.92;1.40;;;5.30;85.40;;;;;;5021346;28;20022;-73
2020/12/26 05:31:53;;;;;;;5.07;1.45;;;5.20;85.30;;;;;;5012726;28;20037;-73
2020/12/26 05:34:20;;;;;;;2.60;1.42;;;5.20;84.80;;;;;;5021998;28;20505;-73
2020/12/26 05:36:46;;;;;;;3.17;1.50;;;5.20;85.00;;;;;;5012745;28;20029;-73
2020/12/26 05:39:12;;;;;;;6.78;1.70;;;5.20;85.10;;;;;;5021146;28;20037;-73
2020/12/26 05:41:40;;;;;;;3.20;1.50;;;5.20;85.40;;;;;;5023856;28;20466;-74
2020/12/26 05:44:05;;;;;;;5.22;1.65;;;5.20;85.50;;;;;;5030728;28;20040;-74
2020/12/26 05:46:31;;;;;;;2.38;1.45;;;5.20;85.30;;;;;;5011825;28;20037;-74
2020/12/26 05:48:57;;;;;;;3.58;1.58;;;5.10;85.30;;;;;;5018996;28;20064;-74
2020/12/26 05:51:28;;;;;;;4.55;1.75;;;5.10;85.20;;;;;;5013802;28;20034;-74
2020/12/26 05:53:55;;;;;;;4.85;1.67;;;5.10;85.10;;;;;;5018355;28;20050;-73
2020/12/26 05:56:22;;;;;;;3.35;1.67;;;5.00;85.10;;;;;;5030984;28;20127;-74
2020/12/26 05:58:48;;;;;;;4.68;1.67;;;5.00;85.20;;;;;;5027479;28;20041;-74
2020/12/26 06:01:20;;;;;;;3.13;1.55;;;4.90;85.30;;;;;;5015302;28;20277;-74
2020/12/26 06:03:46;;;;;;;2.95;1.80;;;4.90;85.40;;;;;;4994944;28;20117;-74
2020/12/26 06:06:14;;;;;;;4.07;1.73;;;4.90;85.60;;;;;;5019179;28;20463;-74
2020/12/26 06:08:39;;;;;;;5.75;1.90;;;4.80;85.80;;;;;;5015249;28;20032;-73
2020/12/26 06:11:07;;;;;;;5.13;1.77;;;4.80;86.10;;;;;;5012379;28;20034;-74
2020/12/26 06:13:34;;;;;;;7.10;2.38;;;4.80;86.40;;;;;;5036686;28;20030;-74
2020/12/26 06:16:20;;;;;;;5.07;2.08;;;4.70;86.60;;;;;;5031510;28;20061;-73
2020/12/26 06:18:59;;;;;;;4.88;2.10;;;4.70;86.90;;;;;;5029926;28;20437;-73
2020/12/26 06:21:26;;;;;;;5.07;2.22;;;4.70;86.90;;;;;;5031521;28;20033;-73
2020/12/26 06:23:52;;;;;;;5.18;2.13;;;4.60;87.10;;;;;;5025327;28;20034;-73
2020/12/26 06:26:18;;;;;;;4.43;2.30;;;4.50;87.70;;;;;;5011530;28;20018;-74
2020/12/26 06:28:44;;;;;;;4.07;2.10;;;4.60;87.50;;;;;;5016424;28;20068;-74
2020/12/26 06:31:11;;;;;;;6.70;2.53;;;4.50;87.70;;;;;;5031515;28;20478;-75
2020/12/26 06:33:41;;;;;;;6.07;2.53;;;4.50;87.80;;;;;;5028010;28;20029;-75
2020/12/26 06:36:08;;;;;;;5.57;2.50;;;4.50;87.90;;;;;;5027372;28;20136;-75
2020/12/26 06:38:35;;;;;;;5.85;2.45;;;4.50;88.00;;;;;;5029742;28;20041;-73
2020/12/26 06:41:06;;;;;;;5.88;2.72;;;4.50;88.20;;;;;;5011997;28;20113;-75
2020/12/26 06:43:46;;;;;;;9.30;3.00;;;4.40;88.50;;;;;;5030187;28;20037;-73
2020/12/26 06:46:21;;;;;;;5.68;3.10;;;4.40;88.60;;;;;;5030875;28;20045;-74
2020/12/26 06:48:51;;;;;;;8.43;3.08;;;4.30;88.60;;;;;;5026676;28;20034;-74
2020/12/26 06:51:26;;;;;;;9.43;3.72;;;4.30;88.70;;;;;;5010269;28;20029;-75
2020/12/26 06:53:53;;;;;;;5.95;3.67;;;4.30;89.00;;;;;;5017294;28;20323;-74
2020/12/26 06:56:42;;;;;;;8.02;3.60;;;4.20;89.00;;;;;;5028709;28;20064;-74
2020/12/26 06:59:10;;;;;;;8.30;3.85;;;4.20;89.20;;;;;;5024884;28;20034;-76
2020/12/26 07:01:37;;;;;;;8.48;4.28;;;4.20;89.40;;;;;;5020654;28;20022;-75
2020/12/26 07:04:17;;;;;;;10.27;4.72;;;4.20;89.70;;;;;;5035617;28;20029;-76
2020/12/26 07:06:44;;;;;;;7.75;4.80;;;4.20;90.00;;;;;;5030992;28;20116;-74
2020/12/26 07:09:11;;;;;;;8.93;4.70;;;4.10;90.00;;;;;;5015550;28;20033;-74
2020/12/26 07:11:47;;;;;;;10.77;5.45;;;4.10;90.20;;;;;;5019430;28;20116;-73
2020/12/26 07:14:35;;;;;;;11.82;5.88;;;4.10;90.30;;;;;;5020664;28;20374;-71
2020/12/26 07:17:02;;;;;;;12.88;6.28;;;4.10;90.30;;;;;;5022613;28;20042;-73
2020/12/26 07:19:38;;;;;;;8.50;5.07;;;4.10;90.40;;;;;;5015305;28;20030;-74
2020/12/26 07:22:06;;;;;;;9.55;5.10;;;4.10;90.50;;;;;;5012189;28;20117;-73
2020/12/26 07:24:33;;;;;;;10.20;5.80;;;4.10;90.60;;;;;;5027692;28;20037;-73
2020/12/26 07:27:17;;;;;;;10.90;6.13;;;4.10;90.70;;;;;;5031014;28;20378;-73
2020/12/26 07:29:56;;;;;;;14.23;6.00;;;4.10;90.70;;;;;;5020536;28;20039;-73
2020/12/26 07:32:40;;;;;;;10.27;6.05;;;4.10;90.80;;;;;;5011175;28;20097;-73
2020/12/26 07:35:12;;;;;;;10.73;6.13;;;4.10;90.90;;;;;;4999147;28;20114;-73
2020/12/26 07:38:14;;;;;;;12.70;6.50;;;4.10;91.00;;;;;;5011778;28;20030;-73
2020/12/26 07:40:45;;;;;;;12.45;6.32;;;4.10;91.00;;;;;;5029484;28;20116;-74
2020/12/26 07:43:15;;;;;;;12.23;6.45;;;4.10;91.10;;;;;;5024723;28;20029;-73
2020/12/26 07:45:46;;;;;;;13.85;6.28;;;4.20;91.20;;;;;;5010952;28;20026;-75
2020/12/26 07:48:11;;;;;;;15.55;7.38;;;4.20;91.20;;;;;;5015855;28;20041;-74
2020/12/26 07:50:39;;;;;;;13.60;7.57;;;4.20;91.30;;;;;;5033901;28;20040;-74
2020/12/26 07:53:07;;;;;;;15.93;7.93;;;4.20;91.30;;;;;;5015094;28;20021;-73
2020/12/26 07:55:34;;;;;;;14.77;8.32;;;4.10;91.40;;;;;;5033422;28;20068;-73
2020/12/26 07:58:04;;;;;;;15.25;8.05;;;4.20;91.50;;;;;;5021215;28;20045;-73
2020/12/26 08:00:34;;;;;;;17.65;8.95;;;4.20;91.60;;;;;;4997496;28;20033;-73
2020/12/26 08:03:01;;;;;;;15.02;8.55;;;4.30;91.70;;;;;;5014378;28;20072;-73
2020/12/26 08:05:32;;;;;;;16.92;9.13;;;4.20;91.70;;;;;;5023640;28;20096;-73
2020/12/26 08:07:58;;;;;;;15.48;8.30;;;4.30;91.80;;;;;;5021874;28;20073;-68
2020/12/26 08:10:25;;;;;;;17.02;8.65;;;4.30;91.80;;;;;;5004077;28;20021;-73
2020/12/26 08:12:58;;;;;;;17.60;8.50;;;4.30;91.90;;;;;;5031715;28;20454;-76
2020/12/26 08:15:28;;;;;;;21.48;8.00;;;4.30;91.90;;;;;;5030862;28;20029;-74
2020/12/26 08:18:01;;;;;;;16.60;8.90;;;4.40;91.90;;;;;;5028633;28;20070;-73
2020/12/26 08:20:31;;;;;;;17.45;8.18;;;4.40;91.80;;;;;;5032220;28;20037;-72
2020/12/26 08:22:57;;;;;;;14.38;7.68;;;4.40;91.80;;;;;;5032949;28;20057;-74
2020/12/26 08:25:26;;;;;;;15.43;7.93;;;4.40;91.70;;;;;;5017180;28;20076;-72
2020/12/26 08:27:52;;;;;;;17.30;8.32;;;4.40;91.80;;;;;;5021803;28;20029;-73
2020/12/26 08:30:30;;;;;;;15.20;8.27;;;4.40;91.80;;;;;;5025640;28;20049;-73
2020/12/26 08:33:19;;;;;;;14.32;7.90;;;4.50;91.90;;;;;;5029358;28;20033;-74
2020/12/26 08:36:00;;;;;;;12.52;7.43;;;4.50;91.90;;;;;;5026130;28;20034;-74
2020/12/26 08:38:44;;;;;;;17.63;8.70;;;4.50;91.90;;;;;;5030279;28;20045;-71
2020/12/26 08:41:12;;;;;;;17.75;7.85;;;4.50;92.10;;;;;;5030749;28;20076;-71
2020/12/26 08:43:39;;;;;;;17.85;7.68;;;4.50;91.90;;;;;;5032143;28;20038;-71
2020/12/26 08:46:15;;;;;;;18.73;8.77;;;4.50;91.90;;;;;;5032129;28;20035;-72
2020/12/26 08:48:41;;;;;;;17.65;7.95;;;4.50;91.90;;;;;;5031977;28;20033;-71
2020/12/26 08:51:17;;;;;;;15.98;9.10;;;4.60;92.00;;;;;;5026786;28;20033;-72
2020/12/26 08:53:43;;;;;;;15.73;8.88;;;4.60;92.00;;;;;;5012503;28;20037;-71
2020/12/26 08:56:09;;;;;;;12.70;7.88;;;4.60;92.00;;;;;;5030468;28;20124;-71
2020/12/26 08:58:34;;;;;;;17.58;8.73;;;4.70;92.00;;;;;;5023315;28;20033;-71
2020/12/26 09:01:02;;;;;;;15.23;8.48;;;4.70;92.00;;;;;;5025424;28;20030;-71
2020/12/26 09:03:33;;;;;;;17.95;8.77;;;4.70;92.10;;;;;;5028044;28;20037;-71
2020/12/26 09:06:01;;;;;;;17.58;9.18;;;4.80;92.10;;;;;;5027035;28;20025;-71
2020/12/26 09:08:34;;;;;;;16.95;8.95;;;4.80;92.10;;;;;;5029085;28;20425;-71
2020/12/26 09:11:02;;;;;;;17.90;9.25;;;4.90;92.10;;;;;;5030802;28;20101;-71
2020/12/26 09:13:39;;;;;;;17.48;9.63;;;4.90;92.00;;;;;;5029091;28;20030;-70
2020/12/26 09:16:09;;;;;;;16.73;9.27;;;4.90;92.00;;;;;;5031934;28;20474;-71
2020/12/26 09:18:49;;;;;;;18.77;10.07;;;5.00;92.00;;;;;;5030705;28;20045;-71
2020/12/26 09:21:23;;;;;;;16.23;9.32;;;5.00;92.00;;;;;;5030607;28;20021;-72
2020/12/26 09:23:50;;;;;;;20.60;9.73;;;5.10;92.00;;;;;;5027880;28;20052;-72
2020/12/26 09:26:21;;;;;;;16.15;9.00;;;5.10;92.00;;;;;;5030818;28;20032;-72
2020/12/26 09:29:01;;;;;;;21.30;9.75;;;5.20;92.00;;;;;;5030973;28;20032;-72
2020/12/26 09:31:34;;;;;;;19.33;10.05;;;5.30;91.90;;;;;;5023496;28;20022;-72
2020/12/26 09:34:03;;;;;;;18.70;9.50;;;5.30;91.80;;;;;;5028830;28;20112;-72
2020/12/26 09:36:28;;;;;;;19.30;9.35;;;5.40;92.00;;;;;;5032067;28;20053;-72
2020/12/26 09:38:54;;;;;;;17.63;9.88;;;5.40;91.70;;;;;;5031418;28;20110;-72
2020/12/26 09:41:25;;;;;;;20.65;10.35;;;5.50;91.90;;;;;;5031854;28;20083;-72
2020/12/26 09:43:53;;;;;;;17.40;9.55;;;5.50;91.60;;;;;;5025470;28;20033;-72
2020/12/26 09:46:21;;;;;;;17.38;9.68;;;5.50;91.50;;;;;;5017125;28;20022;-72
2020/12/26 09:48:47;;;;;;;23.65;9.65;;;5.60;91.50;;;;;;5027859;28;20032;-71
2020/12/26 09:51:21;;;;;;;17.63;8.82;;;5.60;91.40;;;;;;5029917;28;20060;-71
2020/12/26 09:53:47;;;;;;;16.83;9.38;;;5.60;91.30;;;;;;5023017;28;20137;-71
2020/12/26 09:56:13;;;;;;;14.30;8.63;;;5.70;91.20;;;;;;4974605;28;20081;-73
2020/12/26 09:58:43;;;;;;;17.52;9.70;;;5.80;91.20;;;;;;4996071;28;20053;-71
2020/12/26 10:01:14;;;;;;;18.73;8.68;;;5.80;91.10;;;;;;5017216;28;20056;-71
2020/12/26 10:03:41;;;;;;;15.02;9.13;;;5.80;91.00;;;;;;5022319;28;20445;-72
2020/12/26 10:06:10;;;;;;;16.77;8.40;;;5.90;90.90;;;;;;5021724;28;20089;-73
2020/12/26 10:08:36;;;;;;;16.08;8.68;;;5.90;90.60;;;;;;5029755;28;20036;-71
2020/12/26 10:11:02;;;;;;;12.68;7.95;;;5.90;90.50;;;;;;5031401;28;20397;-72
2020/12/26 10:13:27;;;;;;;14.10;8.05;;;6.00;90.50;;;;;;5028816;28;20037;-73
2020/12/26 10:15:52;;;;;;;17.25;8.60;;;5.90;90.40;;;;;;5030515;28;20025;-80
2020/12/26 10:18:18;;;;;;;22.15;11.30;;;6.00;90.30;;;;;;5030363;28;20149;-73
2020/12/26 10:20:43;;;;;;;20.05;11.35;;;6.00;90.30;;;;;;5015159;28;20064;-75
2020/12/26 10:23:09;;;;;;;17.27;9.65;;;6.00;90.40;;;;;;5017712;28;20029;-75
2020/12/26 10:25:35;;;;;;;20.05;9.18;;;6.00;90.30;;;;;;5022270;28;20056;-74
2020/12/26 10:28:01;;;;;;;15.70;8.82;;;6.00;90.40;;;;;;5030086;28;20060;-73
2020/12/26 10:30:26;;;;;;;18.33;8.85;;;6.00;90.20;;;;;;5029750;28;20030;-77
2020/12/26 10:32:52;;;;;;;18.15;9.35;;;6.00;90.10;;;;;;5027633;28;20041;-72
2020/12/26 10:35:18;;;;;;;16.60;8.60;;;6.00;90.00;;;;;;5018942;28;20022;-75
2020/12/26 10:37:43;;;;;;;18.77;9.63;;;6.00;90.00;;;;;;5020646;28;20033;-75
2020/12/26 10:40:09;;;;;;;17.02;9.90;;;6.00;90.00;;;;;;5015978;28;20550;-76
2020/12/26 10:42:34;;;;;;;16.30;8.73;;;6.00;90.00;;;;;;5022011;28;20144;-75
2020/12/26 10:45:00;;;;;;;17.45;9.35;;;6.00;90.00;;;;;;5028173;28;20025;-76
2020/12/26 10:47:26;;;;;;;18.08;8.93;;;6.00;90.00;;;;;;5017875;28;20030;-75
2020/12/26 10:49:51;;;;;;;15.45;7.97;;;6.10;90.10;;;;;;5017293;28;20121;-80
2020/12/26 10:52:17;;;;;;;15.52;8.23;;;6.10;90.10;;;;;;5020209;28;20033;-71
2020/12/26 10:54:42;;;;;;;17.30;9.10;;;6.10;90.20;;;;;;5030260;28;20050;-72
2020/12/26 10:57:08;;;;;;;14.77;8.77;;;6.10;90.20;;;;;;5041796;28;20030;-72
2020/12/26 10:59:33;;;;;;;14.98;8.50;;;6.10;90.30;;;;;;5050232;28;20393;-73
2020/12/26 11:02:00;;;;;;;14.00;8.07;;;6.10;90.30;;;;;;5049577;28;20063;-72
2020/12/26 11:04:26;;;;;;;16.20;9.25;;;6.10;90.40;;;;;;5049817;28;20503;-71
2020/12/26 11:06:51;;;;;;;16.55;8.10;;;6.20;90.40;;;;;;5050621;28;20128;-73
2020/12/26 11:09:17;;;;;;;15.60;8.43;;;6.20;90.30;;;;;;5052536;28;20021;-73
2020/12/26 11:11:50;;;;;;;14.18;7.80;;;6.20;90.30;;;;;;5044345;28;20029;-73
2020/12/26 11:14:17;;;;;;;17.33;8.95;;;6.20;90.20;;;;;;5044623;28;20025;-73
2020/12/26 11:16:53;;;;;;;15.15;8.90;;;6.20;90.30;;;;;;5044187;28;20036;-72
2020/12/26 11:19:19;;;;;;;15.30;9.23;;;6.20;90.30;;;;;;5040158;28;20490;-73
2020/12/26 11:21:51;;;;;;;16.58;7.97;;;6.10;90.40;;;;;;5040376;28;20033;-73
2020/12/26 11:24:16;;;;;;;11.20;6.88;;;6.10;90.50;;;;;;5051874;28;20063;-73
2020/12/26 11:26:42;;;;;;;14.55;7.32;;;6.10;90.60;;;;;;5053031;28;20057;-73
2020/12/26 11:29:07;;;;;;;12.68;7.35;;;6.00;90.70;;;;;;5052597;28;20021;-73
2020/12/26 11:31:33;;;;;;;16.63;8.00;;;6.00;90.80;;;;;;5051103;28;20033;-73
2020/12/26 11:33:58;;;;;;;12.30;6.47;;;5.90;90.80;;;;;;5048744;28;20033;-72
2020/12/26 11:36:26;;;;;;;10.93;6.95;;;5.90;90.90;;;;;;5037180;28;20516;-73
2020/12/26 11:38:52;;;;;;;14.73;7.05;;;5.90;91.00;;;;;;5041725;28;20047;-73
2020/12/26 11:41:19;;;;;;;11.20;6.97;;;5.80;91.10;;;;;;5041654;28;20028;-74
2020/12/26 11:43:45;;;;;;;17.52;7.60;;;5.80;91.20;;;;;;5053367;28;20028;-74
2020/12/26 11:46:12;;;;;;;13.63;7.45;;;5.80;91.30;;;;;;5048873;28;20022;-75
2020/12/26 11:48:38;;;;;;;15.65;7.25;;;5.80;91.30;;;;;;5042052;28;20029;-73
2020/12/26 11:51:05;;;;;;;11.30;6.65;;;5.70;91.40;;;;;;5046804;28;20622;-74
2020/12/26 11:53:30;;;;;;;13.77;7.28;;;5.70;91.40;;;;;;5048542;28;20025;-73
2020/12/26 11:55:56;;;;;;;9.43;6.07;;;5.70;91.40;;;;;;5051923;28;20063;-74
2020/12/26 11:58:23;;;;;;;13.20;6.30;;;5.70;91.40;;;;;;5037230;28;20083;-74
2020/12/26 12:00:50;;;;;;;12.15;6.00;;;5.60;91.40;;;;;;5043514;28;20037;-74
2020/12/26 12:03:16;;;;;;;10.02;5.97;;;5.60;91.50;;;;;;5045449;28;20021;-74
2020/12/26 12:05:41;;;;;;;13.30;6.72;;;5.60;91.50;;;;;;5036688;28;20037;-74
2020/12/26 12:08:07;;;;;;;10.40;6.00;;;5.60;91.60;;;;;;5042316;28;20479;-74
2020/12/26 12:10:32;;;;;;;10.98;5.97;;;5.60;91.70;;;;;;5038731;28;20025;-74
2020/12/26 12:12:58;;;;;;;12.20;6.20;;;5.60;91.80;;;;;;5047095;28;20108;-75
2020/12/26 12:15:23;;;;;;;10.23;5.75;;;5.60;91.80;;;;;;5051757;28;20048;-74
2020/12/26 12:17:49;;;;;;;10.05;5.78;;;5.70;91.90;;;;;;5051459;28;20037;-74
2020/12/26 12:20:14;;;;;;;11.57;6.05;;;5.70;91.90;;;;;;5052579;28;20043;-74
2020/12/26 12:22:41;;;;;;;10.57;5.72;;;5.80;92.00;;;;;;5051933;28;20025;-73
2020/12/26 12:25:07;;;;;;;10.23;5.60;;;5.80;92.00;;;;;;5045667;28;20053;-73
2020/12/26 12:27:32;;;;;;;11.77;5.95;;;5.80;92.00;;;;;;5050373;28;20052;-73
2020/12/26 12:29:58;;;;;;;10.25;6.57;;;5.80;92.00;;;;;;5051105;28;20485;-73
2020/12/26 12:32:24;;;;;;;11.07;5.97;;;5.80;92.00;;;;;;5053414;28;20036;-73
2020/12/26 12:34:49;;;;;;;11.15;5.88;;;5.90;92.10;;;;;;5040384;28;20021;-72
2020/12/26 12:37:14;;;;;;;8.80;5.90;;;5.90;92.10;;;;;;5033561;28;20777;-73
2020/12/26 12:39:40;;;;;;;8.98;5.90;;;5.90;92.00;;;;;;5047016;28;20033;-73
2020/12/26 12:42:07;;;;;;;9.63;6.20;;;5.90;92.10;;;;;;5047956;28;20028;-72
2020/12/26 12:44:34;;;;;;;11.40;6.63;;;5.90;92.20;;;;;;5035861;28;20470;-72
2020/12/26 12:46:59;;;;;;;13.57;7.25;;;5.90;92.20;;;;;;5041410;28;20031;-72
2020/12/26 12:49:25;;;;;;;12.55;6.90;;;5.90;92.30;;;;;;5051313;28;20108;-72
2020/12/26 12:51:50;;;;;;;13.90;6.72;;;5.90;92.30;;;;;;5049984;28;20117;-73
2020/12/26 12:54:17;;;;;;;11.05;6.28;;;5.90;92.30;;;;;;5048211;28;20029;-72